Time;durP1;ratioP1;P1;durP2;ratioP2;P2;SDS_P1;SDS_P2;PMS_P1;PMS_P2;Temp;Humidity;BMP_temperature;BMP_pressure;BME280_temperature;BME280_humidity;BME280_pressure;Samples;Min_cycle;Max_cycle;Signal;HPM_P1;HPM_P2
2022/08/22 00:00:14;;;;;;;8.25;3.53;;;19.30;70.40;;;;;;5055931;28;20083;-48
2022/08/22 00:03:02;;;;;;;7.55;2.47;;;19.20;70.70;;;;;;5056349;28;20465;-48
2022/08/22 00:05:43;;;;;;;5.22;3.10;;;19.10;71.00;;;;;;5056257;28;20013;-48
2022/08/22 00:08:20;;;;;;;;;;;19.10;71.30;;;;;;5056678;28;20021;-45
2022/08/22 00:11:06;;;;;;;8.25;2.70;;;19.10;71.40;;;;;;5056164;28;19909;-48
2022/08/22 00:13:39;;;;;;;4.93;2.55;;;19.00;71.60;;;;;;5055915;28;20096;-46
2022/08/22 00:16:15;;;;;;;11.32;2.60;;;19.00;72.00;;;;;;5056167;28;20362;-44
2022/08/22 00:18:49;;;;;;;3.78;2.55;;;18.90;72.20;;;;;;5055764;28;20060;-46
2022/08/22 00:21:30;;;;;;;11.02;3.58;;;18.80;72.40;;;;;;5055561;28;20036;-47
2022/08/22 00:23:58;;;;;;;;;;;18.80;72.60;;;;;;5056563;28;20020;-46
2022/08/22 00:26:39;;;;;;;3.55;2.40;;;18.80;72.80;;;;;;5055784;28;19995;-47
2022/08/22 00:29:20;;;;;;;6.63;2.75;;;18.80;73.00;;;;;;5055683;28;20029;-45
2022/08/22 00:31:56;;;;;;;8.32;3.03;;;18.80;73.30;;;;;;5055589;28;20067;-46
2022/08/22 00:34:45;;;;;;;8.25;3.03;;;18.80;73.60;;;;;;5056121;28;20063;-46
2022/08/22 00:37:26;;;;;;;9.32;3.28;;;18.70;73.80;;;;;;5055754;28;20036;-45
2022/08/22 00:39:59;;;;;;;7.15;3.35;;;18.70;74.00;;;;;;5053915;28;20107;-47
2022/08/22 00:42:40;;;;;;;8.50;2.63;;;18.70;74.10;;;;;;5055374;28;20062;-45
2022/08/22 00:45:39;;;;;;;5.93;2.80;;;18.60;74.40;;;;;;5055410;28;20028;-45
2022/08/22 00:48:31;;;;;;;9.15;3.63;;;18.60;74.60;;;;;;5056009;28;20112;-46
2022/08/22 00:51:31;;;;;;;10.73;3.30;;;18.50;74.90;;;;;;5055299;28;20029;-50
2022/08/22 00:54:03;;;;;;;4.88;2.78;;;18.40;75.20;;;;;;5055328;28;20376;-48
2022/08/22 00:56:34;;;;;;;8.02;3.60;;;18.40;75.50;;;;;;5055339;28;20388;-47
2022/08/22 00:59:21;;;;;;;9.75;3.10;;;18.40;75.60;;;;;;5055080;28;20447;-47
2022/08/22 01:01:55;;;;;;;7.55;2.67;;;18.30;75.80;;;;;;5055228;28;20024;-47
2022/08/22 01:04:46;;;;;;;13.25;3.00;;;18.30;76.10;;;;;;5055306;28;20027;-47
2022/08/22 01:07:27;;;;;;;8.75;3.30;;;18.30;76.20;;;;;;5054540;28;20503;-47
2022/08/22 01:10:22;;;;;;;4.97;2.95;;;18.30;76.40;;;;;;5054941;28;20542;-46
2022/08/22 01:12:56;;;;;;;10.25;3.22;;;18.20;76.50;;;;;;5055379;28;20033;-45
2022/08/22 01:15:27;;;;;;;9.40;3.20;;;18.20;76.70;;;;;;5055188;28;20029;-47
2022/08/22 01:18:02;;;;;;;8.27;3.15;;;18.20;76.70;;;;;;5054825;28;20472;-46
2022/08/22 01:20:33;;;;;;;8.00;3.05;;;18.10;77.00;;;;;;5054616;28;20107;-46
2022/08/22 01:23:04;;;;;;;13.05;4.22;;;18.10;77.20;;;;;;5054388;28;20028;-45
2022/08/22 01:25:47;;;;;;;3.35;2.65;;;18.10;76.70;;;;;;5054512;28;20032;-45
2022/08/22 01:28:51;;;;;;;8.20;2.50;;;18.00;76.90;;;;;;5054523;28;20042;-47
2022/08/22 01:31:28;;;;;;;12.30;3.45;;;18.00;77.20;;;;;;5053021;28;20052;-48
2022/08/22 01:34:12;;;;;;;7.25;2.53;;;17.80;77.40;;;;;;5054801;28;20105;-47
2022/08/22 01:37:00;;;;;;;5.55;2.50;;;17.80;77.70;;;;;;5054694;28;20033;-47
2022/08/22 01:39:59;;;;;;;7.50;2.90;;;17.80;77.70;;;;;;5054087;28;20040;-47
2022/08/22 01:42:31;;;;;;;6.18;3.10;;;17.70;77.90;;;;;;5054464;28;20124;-46
2022/08/22 01:45:38;;;;;;;9.88;3.55;;;17.70;78.00;;;;;;5054337;28;20025;-47
2022/08/22 01:48:25;;;;;;;6.93;3.33;;;17.50;78.30;;;;;;5035286;28;20029;-46
2022/08/22 01:51:10;;;;;;;8.25;2.80;;;17.30;78.80;;;;;;5051522;28;20032;-47
2022/08/22 01:53:48;;;;;;;5.15;2.70;;;17.30;79.30;;;;;;5054055;28;20437;-48
2022/08/22 01:56:20;;;;;;;5.93;2.92;;;17.30;79.50;;;;;;5054284;28;20040;-50
2022/08/22 01:59:05;;;;;;;9.75;4.32;;;17.30;79.60;;;;;;5053836;28;20049;-47
2022/08/22 02:01:44;;;;;;;4.65;2.83;;;17.20;79.70;;;;;;5054200;28;20024;-50
2022/08/22 02:04:21;;;;;;;8.10;3.03;;;17.30;79.70;;;;;;5052709;28;20350;-47
2022/08/22 02:06:58;;;;;;;8.43;3.63;;;17.30;79.80;;;;;;5054015;28;20373;-47
2022/08/22 02:09:51;;;;;;;7.88;3.10;;;17.20;79.70;;;;;;5053472;28;20032;-47
2022/08/22 02:12:46;;;;;;;9.70;2.90;;;17.30;79.70;;;;;;5053683;28;20112;-46
2022/08/22 02:15:24;;;;;;;8.20;3.53;;;17.30;79.80;;;;;;5054135;28;20442;-46
2022/08/22 02:18:09;;;;;;;6.75;3.40;;;17.30;79.90;;;;;;5053738;28;20025;-46
2022/08/22 02:20:38;;;;;;;5.60;2.50;;;17.20;79.90;;;;;;5054366;28;20476;-47
2022/08/22 02:23:22;;;;;;;9.57;3.83;;;17.10;80.30;;;;;;5053578;28;20036;-46
2022/08/22 02:26:00;;;;;;;8.40;3.95;;;17.10;80.40;;;;;;5052268;28;20028;-47
2022/08/22 02:28:49;;;;;;;3.78;2.78;;;17.20;80.60;;;;;;5053490;28;20025;-46
2022/08/22 02:31:24;;;;;;;11.57;4.80;;;17.20;80.80;;;;;;5053637;28;20174;-47
2022/08/22 02:33:56;;;;;;;5.20;3.33;;;17.30;81.00;;;;;;5053561;28;20151;-45
2022/08/22 02:36:42;;;;;;;3.35;3.00;;;17.30;80.70;;;;;;5053529;28;20357;-46
2022/08/22 02:39:25;;;;;;;7.88;3.45;;;17.30;80.60;;;;;;5052843;28;20047;-47
2022/08/22 02:42:17;;;;;;;9.32;3.80;;;17.30;80.60;;;;;;5053183;28;20017;-47
2022/08/22 02:44:51;;;;;;;9.80;3.50;;;17.20;80.80;;;;;;5052684;28;20159;-45
2022/08/22 02:47:29;;;;;;;6.45;3.25;;;17.20;80.90;;;;;;5052859;28;20035;-46
2022/08/22 02:50:03;;;;;;;6.95;3.45;;;17.20;81.00;;;;;;5052626;28;20082;-46
2022/08/22 02:52:49;;;;;;;5.68;3.38;;;17.20;81.10;;;;;;5052713;28;20067;-45
2022/08/22 02:55:18;;;;;;;8.13;5.13;;;17.10;81.30;;;;;;5050983;28;20040;-46
2022/08/22 02:57:59;;;;;;;10.75;4.45;;;17.10;81.30;;;;;;5052664;28;20048;-46
2022/08/22 03:00:29;;;;;;;6.85;3.25;;;17.00;81.60;;;;;;5052319;28;20385;-45
2022/08/22 03:03:01;;;;;;;8.73;3.53;;;17.00;81.70;;;;;;5051253;28;20044;-46
2022/08/22 03:05:47;;;;;;;11.88;4.38;;;17.00;81.70;;;;;;5052633;28;20044;-46
2022/08/22 03:08:32;;;;;;;8.43;3.47;;;17.00;81.90;;;;;;5052387;28;20037;-48
2022/08/22 03:11:04;;;;;;;8.02;3.88;;;16.90;82.00;;;;;;5052866;28;20025;-46
2022/08/22 03:13:48;;;;;;;7.13;3.80;;;17.00;82.10;;;;;;5052696;28;20029;-47
2022/08/22 03:16:27;;;;;;;5.50;3.63;;;17.00;82.00;;;;;;5052830;28;20029;-45
2022/08/22 03:19:19;;;;;;;8.10;5.00;;;16.90;81.70;;;;;;5052692;28;20021;-46
2022/08/22 03:22:05;;;;;;;8.55;3.88;;;16.80;81.80;;;;;;5055657;28;20078;-46
2022/08/22 03:24:38;;;;;;;8.73;3.70;;;16.80;81.80;;;;;;5055503;28;20017;-45
2022/08/22 03:27:17;;;;;;;7.55;3.72;;;16.80;82.00;;;;;;5056866;28;20025;-47
2022/08/22 03:29:49;;;;;;;5.80;3.42;;;16.80;82.00;;;;;;5056573;28;20445;-46
2022/08/22 03:32:24;;;;;;;7.88;3.63;;;16.70;82.10;;;;;;5056533;28;20028;-46
2022/08/22 03:35:03;;;;;;;5.57;3.17;;;16.70;82.40;;;;;;5055454;28;20033;-46
2022/08/22 03:37:36;;;;;;;7.40;3.65;;;16.50;82.40;;;;;;5056695;28;20079;-46
2022/08/22 03:40:53;;;;;;;6.50;3.40;;;16.60;82.60;;;;;;5056561;28;20381;-46
2022/08/22 03:43:36;;;;;;;7.53;2.72;;;16.50;82.70;;;;;;5055128;28;20032;-46
2022/08/22 03:46:23;;;;;;;7.28;3.22;;;16.60;82.00;;;;;;5056414;28;20057;-47
2022/08/22 03:49:00;;;;;;;8.52;3.58;;;16.50;82.00;;;;;;5055022;28;20115;-45
2022/08/22 03:51:31;;;;;;;5.82;3.25;;;16.50;82.20;;;;;;5056666;28;20112;-45
2022/08/22 03:54:11;;;;;;;7.32;3.20;;;16.50;82.20;;;;;;5054984;28;20053;-46
2022/08/22 03:56:57;;;;;;;7.25;3.15;;;16.40;82.20;;;;;;5056241;28;20032;-47
2022/08/22 03:59:47;;;;;;;5.90;3.47;;;16.40;82.50;;;;;;5056046;28;20045;-46
2022/08/22 04:02:40;;;;;;;7.10;3.35;;;16.30;82.70;;;;;;5056177;28;20095;-46
2022/08/22 04:05:35;;;;;;;8.23;3.88;;;16.30;82.90;;;;;;5056087;28;20134;-46
2022/08/22 04:08:38;;;;;;;5.65;3.33;;;16.20;82.90;;;;;;5055998;28;20500;-47
2022/08/22 04:11:25;;;;;;;13.38;4.18;;;16.20;82.90;;;;;;5056454;28;20033;-46
2022/08/22 19:00:19;;;;;;;8.90;4.65;;;24.60;49.60;;;;;;5111639;27;20916;-40
2022/08/22 19:03:06;;;;;;;8.88;4.95;;;24.50;49.90;;;;;;5109613;28;20036;-39
2022/08/22 19:05:45;;;;;;;7.78;4.68;;;24.50;49.90;;;;;;5109081;28;20024;-39
2022/08/22 19:08:37;;;;;;;7.35;3.67;;;24.50;50.10;;;;;;5110993;28;20032;-40
2022/08/22 19:11:33;;;;;;;5.50;3.35;;;24.50;50.00;;;;;;5111178;28;20028;-39
2022/08/22 19:14:11;;;;;;;9.60;3.47;;;24.50;50.10;;;;;;5109775;28;20020;-39
2022/08/22 19:16:36;;;;;;;8.02;3.78;;;24.50;50.30;;;;;;5110913;28;20139;-39
2022/08/22 19:19:10;;;;;;;5.35;2.95;;;24.40;50.60;;;;;;5110336;28;20111;-38
2022/08/22 19:24:27;;;;;;;6.03;3.42;;;24.30;51.20;;;;;;5110586;28;20038;-38
2022/08/22 19:27:22;;;;;;;4.75;2.95;;;24.30;51.40;;;;;;5110370;28;20028;-38
2022/08/22 19:29:48;;;;;;;5.68;2.45;;;24.30;51.30;;;;;;5110566;28;20356;-39
2022/08/22 19:32:44;;;;;;;4.68;2.53;;;24.30;51.10;;;;;;5110802;28;20049;-38
2022/08/22 19:35:48;;;;;;;5.15;2.13;;;24.20;50.70;;;;;;5110508;28;20015;-38
2022/08/22 19:38:53;;;;;;;8.10;2.10;;;24.20;49.90;;;;;;5064746;28;20039;-39
2022/08/22 19:41:41;;;;;;;4.00;2.60;;;24.30;49.10;;;;;;5108617;28;20024;-38
2022/08/22 19:44:19;;;;;;;6.28;1.85;;;24.30;48.50;;;;;;5110265;28;20023;-38
2022/08/22 19:46:58;;;;;;;3.10;1.60;;;24.20;48.30;;;;;;5110074;28;20031;-39
2022/08/22 19:49:42;;;;;;;8.30;4.90;;;24.20;48.40;;;;;;5110019;28;20077;-39
2022/08/22 19:52:14;;;;;;;5.68;2.33;;;24.20;48.50;;;;;;5110102;28;20127;-39
2022/08/22 19:55:21;;;;;;;5.85;2.50;;;24.20;48.40;;;;;;5110187;28;20107;-39
2022/08/22 19:57:56;;;;;;;6.15;3.50;;;24.10;48.60;;;;;;5110870;28;20106;-39
2022/08/22 20:00:44;;;;;;;5.65;2.15;;;24.00;48.70;;;;;;5110281;28;20464;-40
2022/08/22 20:03:31;;;;;;;3.28;1.77;;;24.00;49.00;;;;;;5108367;28;20068;-38
2022/08/22 20:06:09;;;;;;;4.20;2.22;;;23.90;49.10;;;;;;5108240;28;20020;-38
2022/08/22 20:08:56;;;;;;;1.70;1.60;;;23.80;49.30;;;;;;5108514;28;20110;-38
2022/08/22 20:11:38;;;;;;;2.85;1.65;;;23.80;49.60;;;;;;5097189;28;20352;-38
2022/08/22 20:14:27;;;;;;;6.90;2.10;;;23.80;49.80;;;;;;5094689;28;20073;-38
2022/08/22 20:17:01;;;;;;;3.92;2.17;;;23.80;49.90;;;;;;5094979;28;20027;-39
2022/08/22 20:19:54;;;;;;;6.68;2.60;;;23.70;50.10;;;;;;5094843;28;20479;-39
2022/08/22 20:22:29;;;;;;;5.65;2.92;;;23.70;50.30;;;;;;5095965;28;20016;-39
2022/08/22 20:25:16;;;;;;;5.53;2.05;;;23.80;50.50;;;;;;5095861;28;20024;-39
2022/08/22 20:27:54;;;;;;;5.13;2.22;;;23.80;50.40;;;;;;5095626;28;20020;-39
2022/08/22 20:30:40;;;;;;;9.70;3.78;;;23.80;50.40;;;;;;5096051;28;20032;-38
2022/08/22 20:33:34;;;;;;;6.38;2.53;;;23.80;50.50;;;;;;5095847;28;20023;-38
2022/08/22 20:36:04;;;;;;;6.07;2.33;;;23.70;50.90;;;;;;5084715;28;20036;-38
2022/08/22 20:38:44;;;;;;;7.28;3.50;;;23.60;51.00;;;;;;5095625;28;20454;-38
2022/08/22 20:41:20;;;;;;;8.15;2.08;;;23.60;51.30;;;;;;5095565;28;20023;-39
2022/08/22 20:44:00;;;;;;;4.45;2.10;;;23.80;50.90;;;;;;5094007;28;20017;-39
2022/08/22 20:46:47;;;;;;;4.45;2.20;;;23.70;51.00;;;;;;5095961;28;20023;-38
2022/08/22 20:49:20;;;;;;;3.92;1.70;;;23.60;51.20;;;;;;5093740;28;20039;-37
2022/08/22 20:51:55;;;;;;;4.95;2.40;;;23.60;51.40;;;;;;5095369;28;20027;-37
2022/08/22 20:54:23;;;;;;;7.20;2.17;;;23.60;51.50;;;;;;5095081;28;20020;-37
2022/08/22 20:57:01;;;;;;;4.13;2.13;;;23.50;51.70;;;;;;5095169;28;20028;-37
2022/08/22 20:59:34;;;;;;;4.47;2.50;;;23.50;51.90;;;;;;5094724;28;20120;-39
2022/08/22 21:02:09;;;;;;;2.70;1.98;;;23.40;52.10;;;;;;5093896;28;20027;-39
2022/08/22 21:05:02;;;;;;;11.23;2.72;;;23.40;52.20;;;;;;5095241;28;20027;-39
2022/08/22 21:07:31;;;;;;;5.70;3.00;;;23.50;52.20;;;;;;5095015;28;20021;-38
2022/08/22 21:13:35;;;;;;;7.13;2.72;;;23.40;52.30;;;;;;5095120;28;20107;-40
2022/08/22 21:16:12;;;;;;;2.53;1.63;;;23.30;52.60;;;;;;5077486;28;20094;-38
2022/08/22 21:18:47;;;;;;;5.85;2.75;;;23.30;52.80;;;;;;5095109;28;20020;-38
2022/08/22 21:21:18;;;;;;;2.92;2.13;;;23.30;53.10;;;;;;5094808;28;20020;-38
2022/08/22 21:23:49;;;;;;;4.90;2.20;;;23.30;53.10;;;;;;5094569;28;20463;-38
2022/08/22 21:26:35;;;;;;;5.55;1.90;;;23.30;53.10;;;;;;5094592;28;20468;-38
2022/08/22 21:29:20;;;;;;;3.55;1.80;;;23.30;53.20;;;;;;5094475;28;20356;-38
2022/08/22 21:31:55;;;;;;;3.17;2.13;;;23.20;53.60;;;;;;5094502;28;20034;-38
2022/08/22 21:34:30;;;;;;;3.22;1.92;;;23.30;53.40;;;;;;5094477;28;20031;-38
2022/08/22 21:37:01;;;;;;;2.95;1.63;;;23.30;53.60;;;;;;5094956;28;20020;-39
2022/08/22 21:39:34;;;;;;;6.43;2.10;;;23.20;53.80;;;;;;5094921;28;20165;-38
2022/08/22 21:41:59;;;;;;;4.30;1.85;;;23.10;54.10;;;;;;5093087;28;20055;-39
2022/08/22 21:44:35;;;;;;;4.18;2.33;;;23.00;54.40;;;;;;5093250;28;20056;-38
2022/08/22 21:47:28;;;;;;;4.68;1.92;;;23.00;54.40;;;;;;5094791;28;20065;-39
2022/08/22 21:50:02;;;;;;;4.93;2.28;;;23.00;54.30;;;;;;5094501;28;20035;-38
2022/08/22 21:52:31;;;;;;;5.50;2.67;;;23.10;54.20;;;;;;5093052;28;20024;-39
2022/08/22 21:55:28;;;;;;;3.67;2.15;;;23.20;54.20;;;;;;5095104;28;20031;-39
2022/08/22 21:58:18;;;;;;;7.38;3.50;;;23.10;54.20;;;;;;5085607;28;20040;-39
2022/08/22 22:00:55;;;;;;;4.65;2.25;;;23.10;54.20;;;;;;5093220;28;20019;-39
2022/08/22 22:03:25;;;;;;;4.85;2.55;;;23.10;54.30;;;;;;5094543;28;20483;-39
2022/08/22 22:05:53;;;;;;;2.67;2.17;;;23.00;54.30;;;;;;5094055;28;20032;-39
2022/08/22 22:08:19;;;;;;;5.22;2.22;;;23.00;54.60;;;;;;5094177;28;20109;-39
2022/08/22 22:10:47;;;;;;;7.50;2.22;;;22.80;54.80;;;;;;5094844;28;20028;-39
2022/08/22 22:13:13;;;;;;;5.00;2.22;;;22.80;55.30;;;;;;5094669;28;20031;-39
2022/08/22 22:15:44;;;;;;;3.80;1.65;;;22.90;55.00;;;;;;5093877;28;20039;-38
2022/08/22 22:18:12;;;;;;;3.90;2.08;;;22.70;55.40;;;;;;5092463;28;20034;-38
2022/08/22 22:20:39;;;;;;;3.53;2.03;;;22.70;55.60;;;;;;5093574;28;20095;-38
2022/08/22 22:23:05;;;;;;;4.93;2.05;;;22.80;55.30;;;;;;5093883;28;20016;-38
2022/08/22 22:25:31;;;;;;;4.60;2.55;;;22.70;55.80;;;;;;5093969;28;20028;-38
2022/08/22 22:27:58;;;;;;;6.10;2.17;;;22.60;55.80;;;;;;5094018;28;20352;-38
2022/08/22 22:30:24;;;;;;;4.28;2.65;;;22.40;56.30;;;;;;5093636;28;20028;-38
2022/08/22 22:32:50;;;;;;;6.38;2.78;;;22.40;56.70;;;;;;5093973;28;20020;-39
2022/08/22 22:35:16;;;;;;;5.15;2.67;;;22.30;56.90;;;;;;5094159;28;20028;-38
2022/08/22 22:37:42;;;;;;;6.68;1.90;;;22.30;57.20;;;;;;5092078;28;20127;-38
2022/08/22 22:40:09;;;;;;;7.72;2.22;;;22.20;57.30;;;;;;5093238;28;20039;-39
2022/08/22 22:42:35;;;;;;;4.97;2.38;;;22.20;57.50;;;;;;5093706;28;20070;-38
2022/08/22 22:45:01;;;;;;;4.88;2.38;;;22.20;57.50;;;;;;5093389;28;20020;-39
2022/08/22 22:47:29;;;;;;;5.10;2.17;;;22.10;57.60;;;;;;5093265;28;20460;-39
2022/08/22 22:49:55;;;;;;;6.35;2.58;;;22.10;57.80;;;;;;5093161;28;20020;-38
2022/08/22 22:52:21;;;;;;;5.65;2.60;;;22.10;57.80;;;;;;5093165;28;20024;-38
2022/08/22 22:54:47;;;;;;;4.88;2.00;;;22.00;58.00;;;;;;5091869;28;20372;-43
2022/08/22 22:57:13;;;;;;;7.30;2.88;;;22.00;58.00;;;;;;5093018;28;20027;-39
2022/08/22 22:59:39;;;;;;;4.65;2.47;;;22.10;58.10;;;;;;5092866;28;20055;-39
2022/08/22 23:02:07;;;;;;;7.03;3.15;;;22.10;58.00;;;;;;5093624;28;20405;-38
2022/08/22 23:04:36;;;;;;;7.30;3.20;;;22.00;58.10;;;;;;5093206;28;20103;-38
2022/08/22 23:07:02;;;;;;;4.50;2.65;;;22.00;58.40;;;;;;5093102;28;20032;-39
2022/08/22 23:09:29;;;;;;;5.32;2.60;;;21.90;58.40;;;;;;5093312;28;20109;-39
2022/08/22 23:11:54;;;;;;;7.95;2.72;;;21.90;58.60;;;;;;5093125;28;20025;-39
2022/08/22 23:14:20;;;;;;;7.20;3.45;;;21.80;58.60;;;;;;5093079;28;20030;-39
2022/08/22 23:16:46;;;;;;;5.18;3.47;;;21.90;58.70;;;;;;5091894;28;20097;-39
2022/08/22 23:19:14;;;;;;;3.53;2.00;;;21.80;58.80;;;;;;5092877;28;20024;-39
2022/08/22 23:21:43;;;;;;;5.18;2.50;;;21.80;58.80;;;;;;5092918;28;20016;-38
2022/08/22 23:24:09;;;;;;;7.18;2.75;;;21.80;58.70;;;;;;5093101;28;20048;-39
2022/08/22 23:26:36;;;;;;;4.75;2.70;;;21.80;58.80;;;;;;5093213;28;20047;-38
2022/08/22 23:29:02;;;;;;;4.93;2.17;;;21.80;58.80;;;;;;5093201;28;20021;-39
2022/08/22 23:31:30;;;;;;;6.45;3.42;;;21.80;58.90;;;;;;5092915;28;20051;-39
2022/08/22 23:34:05;;;;;;;4.93;2.70;;;21.80;59.00;;;;;;5093038;28;20028;-38
2022/08/22 23:36:32;;;;;;;3.97;2.15;;;21.80;59.10;;;;;;5093380;28;20028;-38
2022/08/22 23:38:58;;;;;;;5.07;2.35;;;21.70;59.20;;;;;;5092637;28;20503;-39
2022/08/22 23:41:24;;;;;;;4.93;2.47;;;21.70;59.30;;;;;;5092727;28;20099;-38
2022/08/22 23:43:52;;;;;;;3.88;2.47;;;21.70;59.40;;;;;;5092913;28;20488;-38
2022/08/22 23:46:19;;;;;;;3.85;2.03;;;21.70;59.40;;;;;;5095672;28;20031;-39
2022/08/22 23:48:45;;;;;;;3.90;2.45;;;21.70;59.60;;;;;;5096698;28;20024;-37
2022/08/22 23:51:16;;;;;;;6.18;2.53;;;21.70;59.70;;;;;;5097031;28;20150;-38
2022/08/22 23:53:42;;;;;;;6.50;2.70;;;21.70;59.70;;;;;;5096635;28;20024;-38
2022/08/22 23:56:24;;;;;;;5.70;3.30;;;21.60;59.90;;;;;;5096569;28;20035;-38
2022/08/22 23:58:50;;;;;;;3.45;1.88;;;21.60;60.00;;;;;;5096035;28;20507;-38
